Forester — DIUT — position and weather

sailwx.info

Track history (hours):
 
Tides and Currents Weather Stations Pressure Air Temp Water Temp Dewpoint Dewpoint Depression Visibility Wind Speed Wind Dir Waves Ship Positions

Forester

Last reported at 2014-Oct-29 19:31 UTC. Time now 2014-Nov-01 10:34 UTC.
Position N 36°40' E 001°46'.

Length 100 m; draft 6.9 m.

Type: Ship. MMSI: 211233870.

Date/timePositionNaut miles runAvg speedWind from/ knotsBaromVisibWave heightAir tempDewpointWater temp
2014-Oct-29 19:31N 36°40' E 001°46'  
2014-Oct-25 21:11N 35°56' E 000°04'0 0.0
2014-Oct-25 20:29N 35°56' E 000°04'0 0.0
2014-Oct-25 19:29N 35°56' E 000°04'0 0.0
2014-Oct-25 18:28N 35°56' E 000°04'0 0.0
2014-Oct-25 17:21N 35°56' E 000°04'14 7.7
2014-Oct-25 15:33N 36°00' W 000°12'1210.7
2014-Oct-25 14:24N 36°04' W 000°26'23211.1
2014-Oct-24 17:31N 35°57' W 005°12'1111.3
2014-Oct-24 16:33N 35°57' W 005°26'12210.0
2014-Oct-24 04:18N 36°19' W 007°55'4110.3
2014-Oct-24 00:20N 36°29' W 008°44'1110.6
2014-Oct-23 23:20N 36°31' W 008°57'69 9.7
2014-Oct-23 16:11N 37°29' W 009°45'710.5
2014-Oct-23 15:32N 37°35' W 009°47'1110.7
2014-Oct-23 14:33N 37°46' W 009°50'1110.6
2014-Oct-23 13:33N 37°56' W 009°52'1110.6
2014-Oct-23 12:33N 38°07' W 009°55'1110.7
2014-Oct-23 11:33N 38°17' W 009°58'1010.5
2014-Oct-23 10:33N 38°27' W 010°01'1110.8
2014-Oct-23 09:32N 38°38' W 010°04'1111.2
2014-Oct-23 08:33N 38°49' W 010°05'1211.4
2014-Oct-23 07:31N 39°01' W 010°05'2211.2
2014-Oct-23 05:32N 39°23' W 010°05'3411.0
2014-Oct-23 02:24N 39°57' W 010°05'  
2014-Oct-20 08:33N 49°50' W 003°24'1010.5
2014-Oct-20 07:33N 49°55' W 003°09'11 9.4
2014-Oct-20 06:20N 50°00' W 002°54'7 8.6
2014-Oct-20 05:33N 50°02' W 002°44'8 8.1
2014-Oct-20 04:32N 50°05' W 002°32'48 9.6
2014-Oct-19 23:33N 50°25' W 001°24'1111.0
2014-Oct-19 22:33N 50°28' W 001°07'1010.5
2014-Oct-19 21:33N 50°29' W 000°51'10 9.2
2014-Oct-19 20:31N 50°30' W 000°36'  
Track history (hours):
 
Tides and Currents Weather Stations Pressure Air Temp Water Temp Dewpoint Dewpoint Depression Visibility Wind Speed Wind Dir Waves Ship Positions

Forester

Last reported at 2014-Oct-29 19:31 UTC. Time now 2014-Nov-01 10:34 UTC.
Position N 36°40' E 001°46'.

Length 100 m; draft 6.9 m.

Type: Ship. MMSI: 211233870.

Date/timePositionNaut miles runAvg speedWind from/ knotsBaromVisibWave heightAir tempDewpointWater temp
2014-Oct-29 19:31N 36°40' E 001°46'  
2014-Oct-25 21:11N 35°56' E 000°04'0 0.0
2014-Oct-25 20:29N 35°56' E 000°04'0 0.0
2014-Oct-25 19:29N 35°56' E 000°04'0 0.0
2014-Oct-25 18:28N 35°56' E 000°04'0 0.0
2014-Oct-25 17:21N 35°56' E 000°04'14 7.7
2014-Oct-25 15:33N 36°00' W 000°12'1210.7
2014-Oct-25 14:24N 36°04' W 000°26'23211.1
2014-Oct-24 17:31N 35°57' W 005°12'1111.3
2014-Oct-24 16:33N 35°57' W 005°26'12210.0
2014-Oct-24 04:18N 36°19' W 007°55'4110.3
2014-Oct-24 00:20N 36°29' W 008°44'1110.6
2014-Oct-23 23:20N 36°31' W 008°57'69 9.7
2014-Oct-23 16:11N 37°29' W 009°45'710.5
2014-Oct-23 15:32N 37°35' W 009°47'1110.7
2014-Oct-23 14:33N 37°46' W 009°50'1110.6
2014-Oct-23 13:33N 37°56' W 009°52'1110.6
2014-Oct-23 12:33N 38°07' W 009°55'1110.7
2014-Oct-23 11:33N 38°17' W 009°58'1010.5
2014-Oct-23 10:33N 38°27' W 010°01'1110.8
2014-Oct-23 09:32N 38°38' W 010°04'1111.2
2014-Oct-23 08:33N 38°49' W 010°05'1211.4
2014-Oct-23 07:31N 39°01' W 010°05'2211.2
2014-Oct-23 05:32N 39°23' W 010°05'3411.0
2014-Oct-23 02:24N 39°57' W 010°05'  
2014-Oct-20 08:33N 49°50' W 003°24'1010.5
2014-Oct-20 07:33N 49°55' W 003°09'11 9.4
2014-Oct-20 06:20N 50°00' W 002°54'7 8.6
2014-Oct-20 05:33N 50°02' W 002°44'8 8.1
2014-Oct-20 04:32N 50°05' W 002°32'48 9.6
2014-Oct-19 23:33N 50°25' W 001°24'1111.0
2014-Oct-19 22:33N 50°28' W 001°07'1010.5
2014-Oct-19 21:33N 50°29' W 000°51'10 9.2
2014-Oct-19 20:31N 50°30' W 000°36'  

Dump ship's entire track history